createdAt,value
2023-04-03T00:01:22.954Z,17.02
2023-04-03T00:03:52.779Z,17.00
2023-04-03T00:06:21.127Z,16.99
2023-04-03T00:08:51.009Z,16.99
2023-04-03T00:11:20.931Z,16.98
2023-04-03T00:13:49.248Z,16.96
2023-04-03T00:16:17.752Z,16.95
2023-04-03T00:18:46.053Z,16.94
2023-04-03T00:21:15.204Z,16.93
2023-04-03T00:23:43.317Z,16.92
2023-04-03T00:26:16.903Z,16.90
2023-04-03T00:28:45.438Z,16.89
2023-04-03T00:31:16.786Z,16.86
2023-04-03T00:33:44.952Z,16.86
2023-04-03T00:36:14.523Z,16.86
2023-04-03T00:38:42.670Z,16.83
2023-04-03T00:41:10.707Z,16.82
2023-04-03T00:43:40.198Z,16.81
2023-04-03T00:46:08.328Z,16.81
2023-04-03T00:48:40.466Z,16.81
2023-04-03T00:51:11.170Z,16.79
2023-04-03T00:53:43.522Z,16.79
2023-04-03T00:56:14.808Z,16.76
2023-04-03T00:58:49.375Z,16.74
2023-04-03T01:01:22.792Z,16.72
2023-04-03T01:03:51.215Z,16.73
2023-04-03T01:06:23.321Z,16.71
2023-04-03T01:08:52.721Z,16.72
2023-04-03T01:11:23.788Z,16.70
2023-04-03T01:13:53.323Z,16.70
2023-04-03T01:16:21.861Z,16.66
2023-04-03T01:18:50.076Z,16.66
2023-04-03T01:21:49.989Z,16.67
2023-04-03T01:24:35.472Z,16.65
2023-04-03T01:27:06.038Z,16.63
2023-04-03T01:29:35.661Z,16.63
2023-04-03T01:32:06.502Z,16.60
2023-04-03T01:34:34.970Z,16.58
2023-04-03T01:37:03.111Z,16.59
2023-04-03T01:39:31.243Z,16.57
2023-04-03T01:42:00.260Z,16.55
2023-04-03T01:44:28.555Z,16.54
2023-04-03T01:46:56.631Z,16.54
2023-04-03T01:49:26.159Z,16.52
2023-04-03T01:51:54.322Z,16.52
2023-04-03T01:54:22.536Z,16.51
2023-04-03T01:56:50.620Z,16.48
2023-04-03T01:59:20.254Z,16.48
2023-04-03T02:01:48.938Z,16.46
2023-04-03T02:04:17.204Z,16.45
2023-04-03T02:06:46.724Z,16.45
2023-04-03T02:09:14.765Z,16.43
2023-04-03T02:11:42.945Z,16.41
2023-04-03T02:14:11.268Z,16.41
2023-04-03T02:16:39.455Z,16.40
2023-04-03T02:19:08.561Z,16.39
2023-04-03T02:21:36.742Z,16.37
2023-04-03T02:24:07.048Z,16.35
2023-04-03T02:26:35.153Z,16.35
2023-04-03T02:29:03.791Z,16.34
2023-04-03T02:31:32.287Z,16.32
2023-04-03T02:34:00.501Z,16.30
2023-04-03T02:36:28.774Z,16.30
2023-04-03T02:38:57.690Z,16.29
2023-04-03T02:41:34.554Z,16.27
2023-04-03T02:44:03.098Z,16.26
2023-04-03T02:46:31.370Z,16.24
2023-04-03T02:48:59.684Z,16.21
2023-04-03T02:51:27.720Z,16.22
2023-04-03T02:53:55.913Z,16.20
2023-04-03T02:56:24.069Z,16.15
2023-04-03T02:58:53.741Z,16.18
2023-04-03T03:01:22.202Z,16.16
2023-04-03T03:03:50.457Z,16.14
2023-04-03T03:06:19.136Z,16.13
2023-04-03T03:08:47.232Z,16.12
2023-04-03T03:11:15.740Z,16.11
2023-04-03T03:13:43.752Z,16.10
2023-04-03T03:16:13.257Z,16.08
2023-04-03T03:18:41.334Z,16.07
2023-04-03T03:21:14.788Z,16.06
2023-04-03T03:23:42.987Z,16.05
2023-04-03T03:26:12.749Z,16.00
2023-04-03T03:28:41.830Z,16.02
2023-04-03T03:31:11.294Z,16.01
2023-04-03T03:33:40.929Z,16.00
2023-04-03T03:36:09.332Z,15.99
2023-04-03T03:38:37.721Z,15.97
2023-04-03T03:41:06.585Z,15.94
2023-04-03T03:43:35.053Z,15.94
2023-04-03T03:46:03.189Z,15.94
2023-04-03T03:48:31.409Z,15.93
2023-04-03T03:51:02.196Z,15.92
2023-04-03T03:53:30.483Z,15.91
2023-04-03T03:55:58.571Z,15.89
2023-04-03T03:58:26.743Z,15.87
2023-04-03T04:00:55.364Z,15.87
2023-04-03T04:03:23.540Z,15.86
2023-04-03T04:05:51.556Z,15.86
2023-04-03T04:08:20.968Z,15.85
2023-04-03T04:10:48.978Z,15.84
2023-04-03T04:13:17.184Z,15.84
2023-04-03T04:15:45.412Z,15.81
2023-04-03T04:18:16.706Z,15.81
2023-04-03T04:20:46.673Z,15.81
2023-04-03T04:23:14.889Z,15.79
2023-04-03T04:25:46.670Z,15.78
2023-04-03T04:28:18.445Z,15.78
2023-04-03T04:30:47.488Z,15.75
2023-04-03T04:33:15.969Z,15.76
2023-04-03T04:35:44.769Z,15.74
2023-04-03T04:38:12.993Z,15.74
2023-04-03T04:40:41.709Z,15.72
2023-04-03T04:43:11.893Z,15.72
2023-04-03T04:45:40.091Z,15.70
2023-04-03T04:48:08.384Z,15.69
2023-04-03T04:50:36.708Z,15.70
2023-04-03T04:53:05.294Z,15.68
2023-04-03T04:55:33.434Z,15.66
2023-04-03T04:58:01.491Z,15.67
2023-04-03T05:00:30.984Z,15.66
2023-04-03T05:02:59.174Z,15.65
2023-04-03T05:05:27.203Z,15.65
2023-04-03T05:07:55.328Z,15.61
2023-04-03T05:10:23.557Z,15.63
2023-04-03T05:12:51.771Z,15.64
2023-04-03T05:15:19.969Z,15.63
2023-04-03T05:17:49.516Z,15.62
2023-04-03T05:20:17.777Z,15.61
2023-04-03T05:22:45.983Z,15.58
2023-04-03T05:25:14.089Z,15.59
2023-04-03T05:27:42.172Z,15.59
2023-04-03T05:30:12.588Z,15.58
2023-04-03T05:32:41.244Z,15.57
2023-04-03T05:35:11.271Z,15.57
2023-04-03T05:37:39.713Z,15.56
2023-04-03T05:40:09.996Z,15.55
2023-04-03T05:42:38.258Z,15.54
2023-04-03T05:45:07.220Z,15.55
2023-04-03T05:47:35.745Z,15.54
2023-04-03T05:50:03.993Z,15.53
2023-04-03T05:52:37.385Z,15.52
2023-04-03T05:55:05.468Z,15.54
2023-04-03T05:57:33.716Z,15.54
2023-04-03T06:00:02.013Z,15.53
2023-04-03T06:02:30.644Z,15.52
2023-04-03T06:04:58.835Z,15.52
2023-04-03T06:07:29.505Z,15.51
2023-04-03T06:09:59.786Z,15.50
2023-04-03T06:12:29.886Z,15.49
2023-04-03T06:14:58.346Z,15.51
2023-04-03T06:17:26.437Z,15.49
2023-04-03T06:19:54.542Z,15.49
2023-04-03T06:22:22.751Z,15.48
2023-04-03T06:24:53.532Z,15.50
2023-04-03T06:27:23.059Z,15.50
2023-04-03T06:29:51.453Z,15.49
2023-04-03T06:32:19.624Z,15.50
2023-04-03T06:34:47.734Z,15.50
2023-04-03T06:37:19.118Z,15.49
2023-04-03T06:39:48.055Z,15.50
2023-04-03T06:42:16.245Z,15.48
2023-04-03T06:44:46.080Z,15.50
2023-04-03T06:47:14.936Z,15.48
2023-04-03T06:49:43.784Z,15.50
2023-04-03T06:52:13.151Z,15.49
2023-04-03T06:54:42.071Z,15.49
2023-04-03T06:57:10.337Z,15.49
2023-04-03T06:59:38.811Z,15.49
2023-04-03T07:02:08.383Z,15.51
2023-04-03T07:04:37.330Z,15.51
2023-04-03T07:07:05.475Z,15.51
2023-04-03T07:09:33.956Z,15.51
2023-04-03T07:12:02.180Z,15.51
2023-04-03T07:14:30.335Z,15.51
2023-04-03T07:16:58.396Z,15.50
2023-04-03T07:19:29.023Z,15.51
2023-04-03T07:21:57.419Z,15.51
2023-04-03T07:24:25.877Z,15.51
2023-04-03T07:26:55.091Z,15.53
2023-04-03T07:29:23.492Z,15.51
2023-04-03T07:31:51.731Z,15.53
2023-04-03T07:34:20.530Z,15.54
2023-04-03T07:36:50.500Z,15.54
2023-04-03T07:39:18.659Z,15.55
2023-04-03T07:41:46.752Z,15.55
2023-04-03T07:44:15.107Z,15.55
2023-04-03T07:46:43.432Z,15.55
2023-04-03T07:49:11.837Z,15.56
2023-04-03T07:51:40.865Z,15.56
2023-04-03T07:54:10.526Z,15.55
2023-04-03T07:56:38.901Z,15.57
2023-04-03T07:59:07.810Z,15.59
2023-04-03T08:01:36.056Z,15.59
2023-04-03T08:04:04.466Z,15.57
2023-04-03T08:06:45.972Z,15.59
2023-04-03T08:09:16.820Z,15.60
2023-04-03T08:11:46.065Z,15.61
2023-04-03T08:14:17.936Z,15.61
2023-04-03T08:16:47.531Z,15.61
2023-04-03T08:19:25.634Z,15.63
2023-04-03T08:21:55.840Z,15.63
2023-04-03T08:24:25.557Z,15.64
2023-04-03T08:26:53.630Z,15.66
2023-04-03T08:29:22.277Z,15.66
2023-04-03T08:31:50.843Z,15.66
2023-04-03T08:34:19.169Z,15.68
2023-04-03T08:36:47.649Z,15.68
2023-04-03T08:39:15.739Z,15.69
2023-04-03T08:41:47.521Z,15.70
2023-04-03T08:44:26.981Z,15.70
2023-04-03T08:47:13.554Z,15.72
2023-04-03T08:49:48.319Z,15.74
2023-04-03T08:52:21.370Z,15.73
2023-04-03T08:54:54.863Z,15.76
2023-04-03T08:57:31.711Z,15.78
2023-04-03T09:00:03.826Z,15.78
2023-04-03T09:02:36.312Z,15.77
2023-04-03T09:05:10.972Z,15.80
2023-04-03T09:07:44.959Z,15.82
2023-04-03T09:10:15.328Z,15.83
2023-04-03T09:12:50.947Z,15.83
2023-04-03T09:15:35.368Z,15.86
2023-04-03T09:18:11.518Z,15.86
2023-04-03T09:20:45.996Z,15.87
2023-04-03T09:23:21.620Z,15.90
2023-04-03T09:25:51.162Z,15.91
2023-04-03T09:28:20.613Z,15.92
2023-04-03T09:30:48.712Z,15.93
2023-04-03T09:33:18.995Z,15.95
2023-04-03T09:35:49.194Z,15.95
2023-04-03T09:38:21.248Z,15.95
2023-04-03T09:40:52.298Z,15.99
2023-04-03T09:43:32.665Z,16.01
2023-04-03T09:46:21.030Z,16.02
2023-04-03T09:49:05.191Z,16.03
2023-04-03T09:51:36.826Z,16.06
2023-04-03T09:54:41.921Z,16.07
2023-04-03T09:57:14.138Z,16.09
2023-04-03T09:59:49.791Z,16.08
2023-04-03T10:02:37.040Z,16.09
2023-04-03T10:05:09.932Z,16.11
2023-04-03T10:07:38.897Z,16.12
2023-04-03T10:10:20.966Z,16.13
2023-04-03T10:12:49.891Z,16.12
2023-04-03T10:15:21.097Z,16.11
2023-04-03T10:18:00.412Z,16.14
2023-04-03T10:20:38.420Z,16.14
2023-04-03T10:23:21.106Z,16.14
2023-04-03T10:26:02.918Z,16.11
2023-04-03T10:28:37.976Z,16.14
2023-04-03T10:31:16.488Z,16.15
2023-04-03T10:33:58.018Z,16.15
2023-04-03T10:36:35.921Z,16.15
2023-04-03T10:39:15.134Z,16.17
2023-04-03T10:42:08.973Z,16.16
2023-04-03T10:44:54.496Z,16.17
2023-04-03T10:47:27.031Z,16.17
2023-04-03T10:50:03.149Z,16.18
2023-04-03T10:52:40.837Z,16.16
2023-04-03T10:55:26.598Z,16.18
2023-04-03T10:57:58.296Z,16.19
2023-04-03T11:00:35.966Z,16.18
2023-04-03T11:03:15.275Z,16.20
2023-04-03T11:05:46.071Z,16.19
2023-04-03T11:08:21.585Z,16.19
2023-04-03T11:10:52.964Z,16.17
2023-04-03T11:13:27.140Z,16.22
2023-04-03T11:15:56.869Z,16.22
2023-04-03T11:18:34.795Z,16.23
2023-04-03T11:21:06.304Z,16.23
2023-04-03T11:23:48.678Z,16.22
2023-04-03T11:26:20.095Z,16.25
2023-04-03T11:28:48.629Z,16.25
2023-04-03T11:31:31.854Z,16.25
2023-04-03T11:34:15.659Z,16.26
2023-04-03T11:36:48.915Z,16.27
2023-04-03T11:39:25.155Z,16.27
2023-04-03T11:42:06.633Z,16.29
2023-04-03T11:44:40.876Z,16.27
2023-04-03T11:47:10.003Z,16.30
2023-04-03T11:49:59.195Z,16.30
2023-04-03T11:52:57.833Z,16.31
2023-04-03T11:56:00.904Z,16.32
2023-04-03T11:58:31.196Z,16.30
2023-04-03T12:01:09.657Z,16.31
2023-04-03T12:04:09.716Z,16.31
2023-04-03T12:07:05.338Z,16.31
2023-04-03T12:10:04.851Z,16.31
2023-04-03T12:12:36.898Z,16.31
2023-04-03T12:15:24.609Z,16.32
2023-04-03T12:17:53.568Z,16.31
2023-04-03T12:21:04.734Z,16.33
2023-04-03T12:23:37.050Z,16.33
2023-04-03T12:26:23.270Z,16.34
2023-04-03T12:28:54.247Z,16.34
2023-04-03T12:31:25.100Z,16.34
2023-04-03T12:34:11.460Z,16.35
2023-04-03T12:36:48.950Z,16.35
2023-04-03T12:39:37.149Z,16.36
2023-04-03T12:42:19.990Z,16.36
2023-04-03T12:44:57.916Z,16.35
2023-04-03T12:47:33.897Z,16.38
2023-04-03T12:50:06.942Z,16.37
2023-04-03T12:52:42.762Z,16.35
2023-04-03T12:55:18.830Z,16.39
2023-04-03T12:57:47.608Z,16.40
2023-04-03T13:00:25.101Z,16.38
2023-04-03T13:02:53.329Z,16.40
2023-04-03T13:05:23.138Z,16.41
2023-04-03T13:07:54.579Z,16.41
2023-04-03T13:10:24.122Z,16.43
2023-04-03T13:12:54.478Z,16.47
2023-04-03T13:15:25.816Z,16.43
2023-04-03T13:17:54.597Z,16.45
2023-04-03T13:20:27.088Z,16.47
2023-04-03T13:23:01.853Z,16.48
2023-04-03T13:25:33.678Z,16.49
2023-04-03T13:28:13.208Z,16.48
2023-04-03T13:30:56.054Z,16.50
2023-04-03T13:33:27.775Z,16.51
2023-04-03T13:36:02.385Z,16.50
2023-04-03T13:38:34.684Z,16.52
2023-04-03T13:41:06.571Z,16.52
2023-04-03T13:43:37.398Z,16.55
2023-04-03T13:46:24.507Z,16.55
2023-04-03T13:48:54.518Z,16.56
2023-04-03T13:51:26.044Z,16.56
2023-04-03T13:53:58.013Z,16.57
2023-04-03T13:56:33.324Z,16.59
2023-04-03T13:59:22.459Z,16.58
2023-04-03T14:01:54.145Z,16.59
2023-04-03T14:04:23.935Z,16.63
2023-04-03T14:06:52.560Z,16.62
2023-04-03T14:09:21.750Z,16.65
2023-04-03T14:11:54.278Z,16.64
2023-04-03T14:14:24.733Z,16.69
2023-04-03T14:16:56.142Z,16.69
2023-04-03T14:19:26.813Z,16.69
2023-04-03T14:21:56.812Z,16.73
2023-04-03T14:24:25.360Z,16.72
2023-04-03T14:26:56.702Z,16.75
2023-04-03T14:29:25.515Z,16.72
2023-04-03T14:32:07.326Z,16.76
2023-04-03T14:34:42.618Z,16.76
2023-04-03T14:37:14.006Z,16.76
2023-04-03T14:39:42.473Z,16.77
2023-04-03T14:42:18.061Z,16.77
2023-04-03T14:44:46.538Z,16.77
2023-04-03T14:47:29.730Z,16.77
2023-04-03T14:50:01.061Z,16.78
2023-04-03T14:52:31.859Z,16.77
2023-04-03T14:55:01.322Z,16.77
2023-04-03T14:57:32.373Z,16.77
2023-04-03T15:00:01.987Z,16.77
2023-04-03T15:02:32.873Z,16.77
2023-04-03T15:05:03.942Z,16.76
2023-04-03T15:07:35.047Z,16.76
2023-04-03T15:10:05.829Z,16.75
2023-04-03T15:12:35.378Z,16.76
2023-04-03T15:15:04.060Z,16.75
2023-04-03T15:17:32.455Z,16.75
2023-04-03T15:20:01.154Z,16.74
2023-04-03T15:22:29.588Z,16.75
2023-04-03T15:24:57.716Z,16.74
2023-04-03T15:27:25.740Z,16.73
2023-04-03T15:29:56.332Z,16.73
2023-04-03T15:32:24.560Z,16.72
2023-04-03T15:34:56.039Z,16.72
2023-04-03T15:37:24.954Z,16.70
2023-04-03T15:39:53.147Z,16.70
2023-04-03T15:42:21.386Z,16.70
2023-04-03T15:44:49.561Z,16.69
2023-04-03T15:47:19.392Z,16.69
2023-04-03T15:49:47.764Z,16.67
2023-04-03T15:52:16.292Z,16.67
2023-04-03T15:54:44.409Z,16.66
2023-04-03T15:57:12.472Z,16.65
2023-04-03T15:59:41.457Z,16.64
2023-04-03T16:02:13.736Z,16.62
2023-04-03T16:04:43.564Z,16.63
2023-04-03T16:07:11.952Z,16.59
2023-04-03T16:09:40.115Z,16.58
2023-04-03T16:12:08.492Z,16.58
2023-04-03T16:14:36.553Z,16.59
2023-04-03T16:17:04.712Z,16.56
2023-04-03T16:19:33.140Z,16.55
2023-04-03T16:22:02.770Z,16.54
2023-04-03T16:24:31.359Z,16.55
2023-04-03T16:26:59.537Z,16.52
2023-04-03T16:29:27.672Z,16.51
2023-04-03T16:31:56.053Z,16.51
2023-04-03T16:34:24.405Z,16.48
2023-04-03T16:36:53.264Z,16.48
2023-04-03T16:39:22.859Z,16.48
2023-04-03T16:41:51.258Z,16.45
2023-04-03T16:44:19.406Z,16.45
2023-04-03T16:46:48.366Z,16.45
2023-04-03T16:49:16.628Z,16.44
2023-04-03T16:51:44.909Z,16.42
2023-04-03T16:54:14.525Z,16.39
2023-04-03T16:56:43.996Z,16.39
2023-04-03T16:59:12.172Z,16.39
2023-04-03T17:01:40.326Z,16.38
2023-04-03T17:04:08.493Z,16.37
2023-04-03T17:06:36.700Z,16.36
2023-04-03T17:09:05.217Z,16.37
2023-04-03T17:14:06.622Z,16.42
2023-04-03T17:16:36.461Z,16.50
2023-04-03T17:19:04.844Z,16.57
2023-04-03T17:21:34.322Z,16.66
2023-04-03T17:24:05.597Z,16.74
2023-04-03T17:26:33.685Z,16.80
2023-04-03T17:29:01.995Z,16.89
2023-04-03T17:31:31.643Z,16.97
2023-04-03T17:34:01.802Z,17.05
2023-04-03T17:36:30.399Z,17.14
2023-04-03T17:38:58.954Z,17.24
2023-04-03T17:41:27.446Z,17.30
2023-04-03T17:43:56.984Z,17.37
2023-04-03T17:46:26.319Z,17.44
2023-04-03T17:48:55.907Z,17.49
2023-04-03T17:51:25.369Z,17.54
2023-04-03T17:53:53.822Z,17.55
2023-04-03T17:56:24.379Z,17.58
2023-04-03T17:58:52.975Z,17.56
2023-04-03T18:01:23.645Z,17.58
2023-04-03T18:03:56.502Z,17.54
2023-04-03T18:06:28.330Z,17.56
2023-04-03T18:09:00.060Z,17.55
2023-04-03T18:11:29.495Z,17.54
2023-04-03T18:14:02.437Z,17.53
2023-04-03T18:16:31.117Z,17.51
2023-04-03T18:19:17.150Z,17.49
2023-04-03T18:21:49.166Z,17.47
2023-04-03T18:24:19.538Z,17.45
2023-04-03T18:26:52.161Z,17.40
2023-04-03T18:29:21.137Z,17.38
2023-04-03T18:31:51.911Z,17.37
2023-04-03T18:34:21.413Z,17.34
2023-04-03T18:36:56.817Z,17.33
2023-04-03T18:39:26.879Z,17.31
2023-04-03T18:41:56.220Z,17.27
2023-04-03T18:44:26.137Z,17.26
2023-04-03T18:46:56.844Z,17.21
2023-04-03T18:49:27.165Z,17.17
2023-04-03T18:51:55.990Z,17.14
2023-04-03T18:54:24.092Z,17.12
2023-04-03T18:56:52.253Z,17.09
2023-04-03T18:59:20.452Z,17.07
2023-04-03T19:01:48.843Z,17.05
2023-04-03T19:04:17.552Z,17.01
2023-04-03T19:06:47.075Z,16.99
2023-04-03T19:09:15.321Z,17.01
2023-04-03T19:11:43.846Z,17.03
2023-04-03T19:14:16.596Z,17.09
2023-04-03T19:16:45.814Z,17.13
2023-04-03T19:19:14.077Z,17.22
2023-04-03T19:21:42.246Z,17.26
2023-04-03T19:24:13.216Z,17.30
2023-04-03T19:26:42.302Z,17.36
2023-04-03T19:29:11.026Z,17.39
2023-04-03T19:31:39.942Z,17.39
2023-04-03T19:34:09.312Z,17.42
2023-04-03T19:36:38.080Z,17.41
2023-04-03T19:39:07.760Z,17.40
2023-04-03T19:41:38.201Z,17.39
2023-04-03T19:44:07.804Z,17.37
2023-04-03T19:46:36.739Z,17.38
2023-04-03T19:49:05.050Z,17.34
2023-04-03T19:51:33.332Z,17.33
2023-04-03T19:54:01.445Z,17.30
2023-04-03T19:56:29.559Z,17.28
2023-04-03T19:58:59.064Z,17.25
2023-04-03T20:01:29.987Z,17.22
2023-04-03T20:03:58.212Z,17.20
2023-04-03T20:06:26.505Z,17.15
2023-04-03T20:08:54.787Z,17.14
2023-04-03T20:11:23.802Z,17.15
2023-04-03T20:13:52.533Z,17.17
2023-04-03T20:16:25.645Z,17.25
2023-04-03T20:18:55.117Z,17.30
2023-04-03T20:21:27.813Z,17.33
2023-04-03T20:23:56.106Z,17.39
2023-04-03T20:26:27.185Z,17.44
2023-04-03T20:28:57.604Z,17.47
2023-04-03T20:31:28.454Z,17.55
2023-04-03T20:33:56.992Z,17.60
2023-04-03T20:36:30.991Z,17.64
2023-04-03T20:38:59.278Z,17.70
2023-04-03T20:41:28.007Z,17.73
2023-04-03T20:43:56.099Z,17.76
2023-04-03T20:46:38.226Z,17.77
2023-04-03T20:49:18.320Z,17.74
2023-04-03T20:51:46.616Z,17.77
2023-04-03T20:54:14.751Z,17.76
2023-04-03T20:56:44.214Z,17.73
2023-04-03T20:59:14.890Z,17.71
2023-04-03T21:01:43.018Z,17.71
2023-04-03T21:04:15.796Z,17.69
2023-04-03T21:07:21.624Z,17.66
2023-04-03T21:10:28.405Z,17.63
2023-04-03T21:13:33.867Z,17.59
2023-04-03T21:16:04.000Z,17.56
2023-04-03T21:18:57.097Z,17.52
2023-04-03T21:21:26.499Z,17.49
2023-04-03T21:23:55.872Z,17.44
2023-04-03T21:26:26.755Z,17.39
2023-04-03T21:28:55.890Z,17.38
2023-04-03T21:31:24.360Z,17.34
2023-04-03T21:33:54.033Z,17.32
2023-04-03T21:36:22.195Z,17.27
2023-04-03T21:38:51.513Z,17.24
2023-04-03T21:41:19.698Z,17.22
2023-04-03T21:43:48.156Z,17.15
2023-04-03T21:46:16.355Z,17.12
2023-04-03T21:48:47.004Z,17.10
2023-04-03T21:51:17.282Z,17.06
2023-04-03T21:53:46.643Z,17.02
2023-04-03T21:56:14.744Z,16.99
2023-04-03T21:58:43.131Z,16.96
2023-04-03T22:01:11.976Z,16.93
2023-04-03T22:03:40.974Z,16.88
2023-04-03T22:06:14.151Z,16.84
2023-04-03T22:08:48.931Z,16.84
2023-04-03T22:11:17.587Z,16.81
2023-04-03T22:13:46.073Z,16.79
2023-04-03T22:16:14.265Z,16.74
2023-04-03T22:18:42.425Z,16.73
2023-04-03T22:21:10.731Z,16.71
2023-04-03T22:23:38.870Z,16.68
2023-04-03T22:26:09.703Z,16.65
2023-04-03T22:28:39.957Z,16.62
2023-04-03T22:31:09.673Z,16.59
2023-04-03T22:33:38.821Z,16.54
2023-04-03T22:36:08.345Z,16.52
2023-04-03T22:38:37.098Z,16.49
2023-04-03T22:41:06.503Z,16.48
2023-04-03T22:43:37.638Z,16.45
2023-04-03T22:46:07.558Z,16.42
2023-04-03T22:48:35.871Z,16.41
2023-04-03T22:51:07.318Z,16.37
2023-04-03T22:53:36.429Z,16.36
2023-04-03T22:56:08.434Z,16.34
2023-04-03T22:58:39.151Z,16.30
2023-04-03T23:01:08.892Z,16.30
2023-04-03T23:03:38.090Z,16.27
2023-04-03T23:06:07.769Z,16.24
2023-04-03T23:08:38.042Z,16.19
2023-04-03T23:11:07.263Z,16.19
2023-04-03T23:13:37.051Z,16.18
2023-04-03T23:16:06.051Z,16.14
2023-04-03T23:18:34.380Z,16.12
2023-04-03T23:21:04.247Z,16.09
2023-04-03T23:23:33.329Z,16.07
2023-04-03T23:26:03.048Z,16.03
2023-04-03T23:28:31.496Z,16.02
2023-04-03T23:31:02.988Z,15.99
2023-04-03T23:33:32.093Z,15.94
2023-04-03T23:36:01.319Z,15.96
2023-04-03T23:38:29.739Z,15.93
2023-04-03T23:40:57.955Z,15.91
2023-04-03T23:43:26.222Z,15.89
2023-04-03T23:45:54.689Z,15.85
2023-04-03T23:48:24.138Z,15.85
2023-04-03T23:50:52.293Z,15.82
2023-04-03T23:53:20.758Z,15.80
2023-04-03T23:55:48.857Z,15.78
2023-04-03T23:58:17.027Z,15.75
